Peshtigo, Wisconsin
Current Conditions -  °F | °C
As of 7:55 PM on Friday 21 Nov 2014 (Local Time) from KMNM Reporting Station
Clear Clear  
Wind Chill: 16°   Ceiling: Unl
Heat Index: 28°   Visibility: 10mi
Dew Point: 12°   Wind: 18mph
Humidity: 51%   Direction: 230°SW
Pressure: 30.08"   Gusts: 30mph
Location:  45.05°N, 87.75°W
Report Text: KMNM 220155Z AUTO 23016G26KT 10SM CLR M02/M11 A3008 RMK AO1
Loading
Personal Weather Stations






























Interactive Weather Map New forecast layout! Learn more

10-Day Weather Forecast

Advertisements
Track Severe Weather on mobile